createdAt,value
2023-02-19T00:00:42.840Z,2.57
2023-02-19T00:03:29.645Z,2.93
2023-02-19T00:06:16.562Z,3.83
2023-02-19T00:09:03.991Z,3.73
2023-02-19T00:11:52.522Z,2.37
2023-02-19T00:14:39.256Z,2.27
2023-02-19T00:17:26.480Z,3.10
2023-02-19T00:20:14.026Z,2.17
2023-02-19T00:23:00.909Z,5.83
2023-02-19T00:25:47.682Z,2.47
2023-02-19T00:28:36.080Z,2.63
2023-02-19T00:31:25.140Z,3.53
2023-02-19T00:34:13.754Z,1.80
2023-02-19T00:37:00.562Z,4.27
2023-02-19T00:39:47.536Z,4.20
2023-02-19T00:42:34.591Z,3.33
2023-02-19T00:45:23.219Z,3.90
2023-02-19T00:48:10.418Z,4.93
2023-02-19T00:50:57.085Z,3.40
2023-02-19T00:53:44.426Z,3.73
2023-02-19T00:56:31.538Z,4.10
2023-02-19T00:59:19.011Z,3.10
2023-02-19T01:02:07.490Z,2.67
2023-02-19T01:04:54.287Z,4.23
2023-02-19T01:07:41.502Z,4.33
2023-02-19T01:10:28.557Z,3.03
2023-02-19T01:13:18.713Z,3.93
2023-02-19T01:16:06.310Z,3.43
2023-02-19T01:18:55.654Z,3.57
2023-02-19T01:21:42.905Z,4.40
2023-02-19T01:24:30.066Z,3.33
2023-02-19T01:27:17.132Z,4.40
2023-02-19T01:30:04.409Z,5.03
2023-02-19T01:32:51.213Z,4.07
2023-02-19T01:35:41.559Z,4.57
2023-02-19T01:38:29.014Z,4.33
2023-02-19T01:41:18.152Z,3.10
2023-02-19T01:44:08.257Z,4.87
2023-02-19T01:46:57.673Z,5.47
2023-02-19T01:49:49.660Z,3.67
2023-02-19T01:52:38.695Z,2.10
2023-02-19T01:55:26.072Z,4.07
2023-02-19T01:58:13.746Z,4.43
2023-02-19T02:01:01.215Z,3.57
2023-02-19T02:03:50.509Z,6.83
2023-02-19T02:06:44.326Z,5.70
2023-02-19T02:09:49.826Z,4.03
2023-02-19T02:12:36.980Z,5.70
2023-02-19T02:15:30.040Z,5.07
2023-02-19T02:18:28.100Z,5.60
2023-02-19T02:21:45.852Z,4.97
2023-02-19T02:25:03.842Z,4.53
2023-02-19T02:28:01.647Z,4.33
2023-02-19T02:30:51.666Z,3.87
2023-02-19T02:33:45.752Z,7.00
2023-02-19T02:36:36.944Z,6.40
2023-02-19T02:39:27.514Z,3.93
2023-02-19T02:42:29.670Z,3.63
2023-02-19T02:45:37.590Z,4.40
2023-02-19T02:48:31.805Z,4.27
2023-02-19T02:51:23.476Z,3.20
2023-02-19T02:54:32.782Z,3.97
2023-02-19T02:57:21.427Z,2.80
2023-02-19T03:00:09.599Z,2.43
2023-02-19T03:02:56.934Z,2.27
2023-02-19T03:05:55.673Z,3.87
2023-02-19T03:08:46.989Z,3.87
2023-02-19T03:11:53.923Z,2.53
2023-02-19T03:15:02.738Z,3.13
2023-02-19T03:18:11.386Z,3.20
2023-02-19T03:21:00.170Z,3.33
2023-02-19T03:24:05.386Z,5.17
2023-02-19T03:26:54.968Z,4.27
2023-02-19T03:29:43.642Z,2.33
2023-02-19T03:32:34.782Z,3.87
2023-02-19T03:35:24.688Z,3.63
2023-02-19T03:38:18.963Z,4.63
2023-02-19T03:41:12.941Z,2.40
2023-02-19T03:44:12.220Z,3.27
2023-02-19T03:47:05.471Z,3.63
2023-02-19T03:49:59.864Z,2.10
2023-02-19T03:52:57.086Z,3.17
2023-02-19T03:55:56.410Z,3.50
2023-02-19T03:58:52.331Z,1.50
2023-02-19T04:01:43.991Z,0.57
2023-02-19T04:04:33.635Z,2.10
2023-02-19T04:07:21.455Z,3.37
2023-02-19T04:10:10.145Z,3.47
2023-02-19T04:13:05.563Z,1.87
2023-02-19T04:15:56.253Z,2.53
2023-02-19T04:18:46.354Z,3.50
2023-02-19T04:21:35.003Z,5.30
2023-02-19T04:24:27.898Z,3.40
2023-02-19T04:27:14.967Z,5.63
2023-02-19T04:30:03.504Z,2.77
2023-02-19T04:32:50.847Z,3.93
2023-02-19T04:35:37.758Z,4.07
2023-02-19T04:38:24.864Z,4.33
2023-02-19T04:41:12.204Z,2.83
2023-02-19T04:43:59.372Z,3.60
2023-02-19T04:46:47.433Z,2.90
2023-02-19T04:49:34.329Z,1.97
2023-02-19T04:52:21.052Z,4.30
2023-02-19T04:55:09.116Z,3.90
2023-02-19T04:57:55.813Z,3.17
2023-02-19T05:00:42.851Z,2.33
2023-02-19T05:03:31.433Z,1.37
2023-02-19T05:06:18.519Z,3.00
2023-02-19T05:09:06.421Z,2.87
2023-02-19T05:11:54.049Z,2.93
2023-02-19T05:14:41.086Z,3.10
2023-02-19T05:17:27.878Z,3.67
2023-02-19T05:20:16.054Z,1.93
2023-02-19T05:23:03.056Z,1.93
2023-02-19T05:25:49.942Z,2.77
2023-02-19T05:28:37.113Z,3.00
2023-02-19T05:31:24.779Z,2.53
2023-02-19T05:34:11.646Z,2.40
2023-02-19T05:36:59.666Z,2.10
2023-02-19T05:39:46.604Z,2.63
2023-02-19T05:42:33.354Z,1.87
2023-02-19T05:45:20.615Z,2.77
2023-02-19T05:48:08.301Z,3.00
2023-02-19T05:50:55.759Z,2.93
2023-02-19T05:53:45.326Z,2.53
2023-02-19T05:56:35.381Z,2.80
2023-02-19T05:59:23.517Z,2.47
2023-02-19T06:02:11.224Z,1.63
2023-02-19T06:04:58.238Z,2.27
2023-02-19T06:07:45.346Z,1.93
2023-02-19T06:10:33.805Z,2.90
2023-02-19T06:13:20.917Z,2.63
2023-02-19T06:16:09.939Z,2.67
2023-02-19T06:18:57.722Z,2.53
2023-02-19T06:21:44.797Z,2.40
2023-02-19T06:24:31.915Z,2.43
2023-02-19T06:27:20.359Z,2.17
2023-02-19T06:30:08.105Z,1.40
2023-02-19T06:32:55.403Z,1.13
2023-02-19T06:35:42.335Z,1.53
2023-02-19T06:38:30.294Z,2.53
2023-02-19T06:41:17.636Z,1.80
2023-02-19T06:44:06.609Z,2.80
2023-02-19T06:46:56.686Z,1.13
2023-02-19T06:49:44.340Z,1.33
2023-02-19T06:52:31.470Z,1.57
2023-02-19T06:55:20.278Z,2.90
2023-02-19T06:58:07.602Z,1.87
2023-02-19T07:00:57.308Z,1.40
2023-02-19T07:03:44.631Z,2.03
2023-02-19T07:06:33.108Z,1.50
2023-02-19T07:09:20.597Z,0.90
2023-02-19T07:12:10.359Z,2.10
2023-02-19T07:14:57.524Z,2.73
2023-02-19T07:17:45.763Z,0.97
2023-02-19T07:20:32.901Z,1.43
2023-02-19T07:23:20.430Z,1.37
2023-02-19T07:26:10.750Z,1.67
2023-02-19T07:28:57.673Z,1.30
2023-02-19T07:31:44.905Z,0.70
2023-02-19T07:34:33.634Z,1.20
2023-02-19T07:37:20.760Z,1.00
2023-02-19T07:40:08.509Z,2.07
2023-02-19T07:43:00.209Z,1.40
2023-02-19T07:45:48.189Z,0.40
2023-02-19T07:48:36.315Z,0.93
2023-02-19T07:51:25.568Z,0.50
2023-02-19T07:54:12.850Z,0.30
2023-02-19T07:56:59.784Z,0.23
2023-02-19T07:59:47.049Z,0.30
2023-02-19T08:02:51.463Z,0.30
2023-02-19T08:05:39.895Z,0.30
2023-02-19T08:08:28.196Z,0.30
2023-02-19T08:11:32.477Z,0.20
2023-02-19T08:14:19.900Z,0.63
2023-02-19T08:17:07.257Z,0.60
2023-02-19T08:19:54.064Z,0.60
2023-02-19T08:22:41.146Z,0.30
2023-02-19T08:25:31.164Z,0.20
2023-02-19T08:28:19.292Z,0.63
2023-02-19T08:31:11.470Z,0.27
2023-02-19T08:33:58.733Z,0.20
2023-02-19T08:36:45.735Z,0.20
2023-02-19T08:39:33.380Z,0.33
2023-02-19T08:42:21.900Z,0.43
2023-02-19T08:45:10.579Z,0.40
2023-02-19T08:47:57.608Z,0.33
2023-02-19T08:50:44.794Z,0.30
2023-02-19T08:53:32.771Z,0.67
2023-02-19T08:56:19.632Z,1.33
2023-02-19T08:59:07.815Z,0.20
2023-02-19T09:01:54.654Z,2.00
2023-02-19T09:04:41.905Z,0.43
2023-02-19T09:07:29.324Z,0.37
2023-02-19T09:10:16.543Z,0.50
2023-02-19T09:13:03.557Z,0.53
2023-02-19T09:15:52.956Z,1.00
2023-02-19T09:18:40.634Z,0.40
2023-02-19T09:21:27.716Z,0.40
2023-02-19T09:24:15.137Z,1.03
2023-02-19T09:27:02.584Z,0.60
2023-02-19T09:29:49.437Z,0.40
2023-02-19T09:32:40.652Z,1.13
2023-02-19T09:35:27.483Z,0.50
2023-02-19T09:38:15.046Z,0.37
2023-02-19T09:41:08.981Z,0.20
2023-02-19T09:43:56.963Z,0.63
2023-02-19T09:46:47.500Z,0.50
2023-02-19T09:49:38.863Z,0.23
2023-02-19T09:52:31.723Z,0.83
2023-02-19T09:55:27.491Z,0.50
2023-02-19T09:58:27.188Z,0.30
2023-02-19T10:01:14.776Z,1.07
2023-02-19T10:04:02.550Z,3.77
2023-02-19T10:06:52.451Z,0.87
2023-02-19T10:09:40.178Z,0.87
2023-02-19T10:12:29.615Z,0.30
2023-02-19T10:15:25.287Z,0.47
2023-02-19T10:18:12.504Z,0.43
2023-02-19T10:21:00.298Z,0.20
2023-02-19T10:23:59.733Z,0.53
2023-02-19T10:26:49.290Z,0.20
2023-02-19T10:29:36.788Z,0.53
2023-02-19T10:32:33.610Z,0.30
2023-02-19T10:35:24.277Z,2.37
2023-02-19T10:38:20.746Z,0.30
2023-02-19T10:41:18.652Z,0.40
2023-02-19T10:44:09.736Z,0.40
2023-02-19T10:47:00.904Z,0.93
2023-02-19T10:49:52.150Z,0.67
2023-02-19T10:52:39.397Z,0.77
2023-02-19T10:55:30.862Z,0.57
2023-02-19T10:58:30.628Z,1.93
2023-02-19T11:01:22.540Z,0.30
2023-02-19T11:04:18.507Z,0.67
2023-02-19T11:07:16.175Z,1.00
2023-02-19T11:10:09.307Z,2.70
2023-02-19T11:13:01.293Z,2.23
2023-02-19T11:15:56.621Z,1.43
2023-02-19T11:18:49.100Z,0.53
2023-02-19T11:21:37.060Z,0.87
2023-02-19T11:24:30.699Z,0.70
2023-02-19T11:27:24.862Z,0.83
2023-02-19T11:30:40.274Z,1.23
2023-02-19T11:33:33.187Z,0.53
2023-02-19T11:36:37.162Z,0.40
2023-02-19T11:39:37.840Z,1.00
2023-02-19T11:42:50.582Z,0.87
2023-02-19T11:45:44.590Z,1.17
2023-02-19T11:48:55.175Z,1.63
2023-02-19T11:52:12.009Z,0.93
2023-02-19T11:55:18.541Z,1.60
2023-02-19T11:58:21.447Z,0.80
2023-02-19T12:01:17.012Z,1.60
2023-02-19T12:04:26.588Z,0.50
2023-02-19T12:07:27.435Z,1.30
2023-02-19T12:10:22.745Z,1.37
2023-02-19T12:13:19.339Z,0.60
2023-02-19T12:16:19.516Z,1.63
2023-02-19T12:19:23.022Z,2.63
2023-02-19T12:22:29.835Z,1.50
2023-02-19T12:25:33.429Z,1.73
2023-02-19T12:28:44.558Z,0.90
2023-02-19T12:31:53.396Z,2.17
2023-02-19T12:35:19.720Z,2.17
2023-02-19T12:38:22.231Z,3.97
2023-02-19T12:41:30.456Z,1.80
2023-02-19T12:44:22.142Z,2.93
2023-02-19T12:47:17.333Z,6.43
2023-02-19T12:50:18.194Z,5.10
2023-02-19T12:53:12.930Z,2.90
2023-02-19T12:56:02.361Z,2.80
2023-02-19T12:58:53.995Z,2.73
2023-02-19T13:01:48.667Z,2.03
2023-02-19T13:04:43.873Z,1.70
2023-02-19T13:07:38.438Z,2.10
2023-02-19T13:10:33.169Z,3.27
2023-02-19T13:13:26.451Z,2.80
2023-02-19T13:16:18.928Z,2.23
2023-02-19T13:19:06.779Z,2.00
2023-02-19T13:22:22.614Z,5.43
2023-02-19T13:25:12.340Z,3.43
2023-02-19T13:28:20.260Z,3.17
2023-02-19T13:31:22.813Z,2.23
2023-02-19T13:34:20.350Z,1.10
2023-02-19T13:37:08.198Z,3.37
2023-02-19T13:39:56.867Z,2.27
2023-02-19T13:42:53.574Z,3.63
2023-02-19T13:45:43.589Z,2.93
2023-02-19T13:48:33.122Z,4.03
2023-02-19T13:51:40.717Z,2.97
2023-02-19T13:54:30.575Z,2.73
2023-02-19T13:57:30.589Z,5.60
2023-02-19T14:00:58.199Z,2.43
2023-02-19T14:03:52.118Z,3.63
2023-02-19T14:07:23.653Z,4.23
2023-02-19T14:10:15.092Z,5.47
2023-02-19T14:13:01.890Z,3.37
2023-02-19T14:15:51.361Z,4.53
2023-02-19T14:18:47.561Z,3.23
2023-02-19T14:21:39.656Z,4.23
2023-02-19T14:24:26.846Z,3.23
2023-02-19T14:27:17.356Z,4.77
2023-02-19T14:30:05.972Z,2.53
2023-02-19T14:33:02.767Z,2.50
2023-02-19T14:36:03.999Z,2.80
2023-02-19T14:38:54.589Z,2.43
2023-02-19T14:41:45.131Z,3.37
2023-02-19T14:44:35.966Z,3.63
2023-02-19T14:47:25.659Z,3.37
2023-02-19T14:50:18.576Z,4.83
2023-02-19T14:53:09.221Z,2.27
2023-02-19T14:55:58.400Z,2.97
2023-02-19T14:58:45.180Z,2.57
2023-02-19T15:01:32.117Z,3.70
2023-02-19T15:04:24.185Z,2.50
2023-02-19T15:07:16.262Z,3.13
2023-02-19T15:10:06.101Z,2.80
2023-02-19T15:12:57.339Z,2.23
2023-02-19T15:15:46.871Z,8.17
2023-02-19T15:18:36.323Z,5.87
2023-02-19T15:21:27.147Z,1.77
2023-02-19T15:24:17.122Z,2.70
2023-02-19T15:27:06.372Z,2.63
2023-02-19T15:29:54.249Z,4.30
2023-02-19T15:32:41.332Z,2.50
2023-02-19T15:35:30.178Z,2.97
2023-02-19T15:38:17.312Z,7.33
2023-02-19T15:41:04.771Z,4.17
2023-02-19T15:43:58.381Z,3.43
2023-02-19T15:46:47.341Z,1.70
2023-02-19T15:49:45.073Z,3.80
2023-02-19T15:52:40.544Z,2.83
2023-02-19T15:55:35.542Z,3.37
2023-02-19T15:58:28.819Z,5.30
2023-02-19T16:01:22.227Z,3.37
2023-02-19T16:04:14.322Z,3.57
2023-02-19T16:07:02.660Z,3.33
2023-02-19T16:09:49.509Z,4.60
2023-02-19T16:12:36.421Z,2.17
2023-02-19T16:15:23.900Z,3.90
2023-02-19T16:18:16.643Z,5.30
2023-02-19T16:21:09.440Z,6.70
2023-02-19T16:24:01.876Z,3.97
2023-02-19T16:26:49.024Z,2.73
2023-02-19T16:29:36.260Z,5.27
2023-02-19T16:32:23.447Z,4.47
2023-02-19T16:35:37.944Z,2.67
2023-02-19T16:38:24.850Z,1.83
2023-02-19T16:41:16.553Z,1.83
2023-02-19T16:44:23.695Z,3.03
2023-02-19T16:47:45.046Z,5.17
2023-02-19T16:50:32.139Z,4.13
2023-02-19T16:53:24.905Z,3.53
2023-02-19T16:56:18.538Z,3.10
2023-02-19T16:59:07.162Z,4.30
2023-02-19T17:01:54.636Z,11.17
2023-02-19T17:04:41.786Z,2.53
2023-02-19T17:07:28.779Z,4.03
2023-02-19T17:10:20.577Z,5.53
2023-02-19T17:13:07.595Z,4.43
2023-02-19T17:15:54.717Z,5.17
2023-02-19T17:18:41.828Z,4.13
2023-02-19T17:21:31.945Z,4.07
2023-02-19T17:24:19.923Z,4.97
2023-02-19T17:27:11.737Z,4.50
2023-02-19T17:29:58.636Z,3.87
2023-02-19T17:32:45.682Z,5.30
2023-02-19T17:35:33.237Z,3.77
2023-02-19T17:38:20.103Z,3.57
2023-02-19T17:41:07.127Z,4.07
2023-02-19T17:43:55.770Z,4.67
2023-02-19T17:46:43.157Z,4.27
2023-02-19T17:49:30.146Z,5.63
2023-02-19T17:52:19.419Z,5.00
2023-02-19T17:55:07.043Z,3.40
2023-02-19T17:57:54.679Z,3.73
2023-02-19T18:00:42.640Z,3.37
2023-02-19T18:03:30.086Z,4.20
2023-02-19T18:06:17.289Z,4.60
2023-02-19T18:09:04.690Z,3.53
2023-02-19T18:11:51.773Z,3.80
2023-02-19T18:14:38.973Z,6.30
2023-02-19T18:17:27.310Z,7.47
2023-02-19T18:20:16.042Z,7.73
2023-02-19T18:23:03.477Z,5.30
2023-02-19T18:25:50.779Z,4.10
2023-02-19T18:28:38.114Z,4.73
2023-02-19T18:31:25.133Z,3.03
2023-02-19T18:34:19.838Z,6.27
2023-02-19T18:37:06.581Z,2.50
2023-02-19T18:39:54.183Z,2.40
2023-02-19T18:42:41.335Z,6.07
2023-02-19T18:45:29.703Z,4.13
2023-02-19T18:48:17.092Z,3.43
2023-02-19T18:51:06.028Z,5.93
2023-02-19T18:53:53.023Z,6.07
2023-02-19T18:56:44.208Z,1.53
2023-02-19T18:59:31.796Z,7.67
2023-02-19T19:02:19.200Z,5.33
2023-02-19T19:05:09.252Z,1.23
2023-02-19T19:07:59.564Z,2.93
2023-02-19T19:10:46.361Z,5.70
2023-02-19T19:13:33.224Z,2.27
2023-02-19T19:16:23.901Z,4.60
2023-02-19T19:19:11.172Z,3.60
2023-02-19T19:22:00.613Z,4.17
2023-02-19T19:24:48.964Z,4.23
2023-02-19T19:27:36.037Z,2.73
2023-02-19T19:30:23.376Z,3.07
2023-02-19T19:33:14.299Z,4.03
2023-02-19T19:36:00.960Z,1.17
2023-02-19T19:38:48.000Z,7.10
2023-02-19T19:41:36.294Z,3.83
2023-02-19T19:44:24.035Z,4.57
2023-02-19T19:47:11.097Z,3.00
2023-02-19T19:49:58.534Z,5.53
2023-02-19T19:52:45.775Z,3.73
2023-02-19T19:55:32.742Z,7.57
2023-02-19T19:58:24.763Z,5.97
2023-02-19T20:01:12.212Z,4.70
2023-02-19T20:03:59.774Z,4.33
2023-02-19T20:06:46.907Z,2.27
2023-02-19T20:09:33.702Z,4.07
2023-02-19T20:12:20.976Z,5.83
2023-02-19T20:15:10.919Z,5.90
2023-02-19T20:17:58.028Z,3.20
2023-02-19T20:20:45.060Z,8.17
2023-02-19T20:23:31.964Z,5.03
2023-02-19T20:26:24.417Z,5.37
2023-02-19T20:29:11.569Z,3.53
2023-02-19T20:32:02.386Z,5.00
2023-02-19T20:34:49.638Z,7.67
2023-02-19T20:37:38.494Z,5.33
2023-02-19T20:40:27.749Z,4.47
2023-02-19T20:43:14.738Z,4.53
2023-02-19T20:46:01.485Z,4.57
2023-02-19T20:48:51.806Z,2.70
2023-02-19T20:51:45.548Z,4.43
2023-02-19T20:54:34.117Z,2.63
2023-02-19T20:57:21.101Z,3.07
2023-02-19T21:00:10.503Z,3.23
2023-02-19T21:02:57.350Z,9.57
2023-02-19T21:05:45.909Z,5.93
2023-02-19T21:08:32.916Z,4.03
2023-02-19T21:11:19.701Z,3.30
2023-02-19T21:14:06.972Z,3.70
2023-02-19T21:16:54.829Z,4.70
2023-02-19T21:19:42.488Z,4.80
2023-02-19T21:22:32.196Z,5.93
2023-02-19T21:25:19.296Z,7.17
2023-02-19T21:28:09.090Z,3.97
2023-02-19T21:30:56.453Z,3.63
2023-02-19T21:33:43.392Z,4.83
2023-02-19T21:36:30.513Z,4.83
2023-02-19T21:39:21.245Z,3.17
2023-02-19T21:42:08.371Z,4.53
2023-02-19T21:44:55.317Z,4.43
2023-02-19T21:47:43.535Z,2.10
2023-02-19T21:50:30.253Z,6.20
2023-02-19T21:53:17.719Z,2.33
2023-02-19T21:56:06.620Z,5.37
2023-02-19T21:58:53.658Z,4.40
2023-02-19T22:01:42.296Z,1.80
2023-02-19T22:04:29.456Z,5.83
2023-02-19T22:07:16.290Z,6.70
2023-02-19T22:10:03.412Z,4.80
2023-02-19T22:12:51.687Z,4.70
2023-02-19T22:15:38.638Z,3.73
2023-02-19T22:18:25.443Z,4.67
2023-02-19T22:21:12.282Z,8.63
2023-02-19T22:23:59.285Z,6.17
2023-02-19T22:26:46.795Z,6.00
2023-02-19T22:29:35.454Z,5.97
2023-02-19T22:32:22.482Z,6.00
2023-02-19T22:35:09.891Z,7.53
2023-02-19T22:37:59.304Z,3.57
2023-02-19T22:40:46.303Z,1.50
2023-02-19T22:43:36.299Z,4.73
2023-02-19T22:46:27.138Z,2.67
2023-02-19T22:49:15.150Z,3.83
2023-02-19T22:52:05.124Z,4.00
2023-02-19T22:54:54.024Z,5.57
2023-02-19T22:57:40.833Z,4.30
2023-02-19T23:00:28.108Z,4.87
2023-02-19T23:03:16.353Z,5.60
2023-02-19T23:06:04.809Z,7.27
2023-02-19T23:08:52.022Z,5.00
2023-02-19T23:11:40.182Z,4.20
2023-02-19T23:14:26.973Z,5.50
2023-02-19T23:17:13.858Z,2.73
2023-02-19T23:20:02.805Z,3.10
2023-02-19T23:22:49.376Z,4.67
2023-02-19T23:25:36.447Z,5.70
2023-02-19T23:28:23.282Z,8.17
2023-02-19T23:31:11.554Z,3.77
2023-02-19T23:33:58.449Z,5.70
2023-02-19T23:36:49.019Z,4.83
2023-02-19T23:39:36.348Z,2.70
2023-02-19T23:42:23.467Z,7.67
2023-02-19T23:45:10.910Z,3.27
2023-02-19T23:47:57.943Z,4.27
2023-02-19T23:50:45.400Z,2.13
2023-02-19T23:53:33.701Z,7.60
2023-02-19T23:56:24.623Z,4.17
2023-02-19T23:59:11.514Z,5.37
